West Glenwood, Colorado
Current Conditions -  °F | °C
As of 10:38 PM on Wednesday 22 Oct 2014 (Local Time) from K5SM Reporting Station
Clear Clear  
Wind Chill: 34°   Ceiling: Unl
Heat Index: 34°   Visibility: 10mi
Dew Point: 32°   Wind: 0mph
Humidity: 93%   Direction: NA
Pressure: 30.44"   Gusts: NA
Location:  39.6119°N, 107.29°W
Report Text: K5SM 230438Z AUTO 00000KT 10SM CLR 01/00 A3044 RMK AO2
Loading
Personal Weather Stations






























Interactive Weather Map
Tropical Storm Tracking
New forecast layout! Learn more

10-Day Weather Forecast

Advertisements
Track Severe Weather on mobile